sensor_id;sensor_type;location;lat;lon;timestamp;temperature;humidity
22925;DHT22;11628;51.072;3.712;2023-04-03T00:01:01;5.90;99.90
22925;DHT22;11628;51.072;3.712;2023-04-03T00:03:26;6.00;99.90
22925;DHT22;11628;51.072;3.712;2023-04-03T00:05:52;5.90;99.90
22925;DHT22;11628;51.072;3.712;2023-04-03T00:08:18;5.90;99.90
22925;DHT22;11628;51.072;3.712;2023-04-03T00:10:44;5.90;99.90
22925;DHT22;11628;51.072;3.712;2023-04-03T00:13:10;5.80;99.90
22925;DHT22;11628;51.072;3.712;2023-04-03T00:15:37;5.80;99.90
22925;DHT22;11628;51.072;3.712;2023-04-03T00:18:03;5.90;99.90
22925;DHT22;11628;51.072;3.712;2023-04-03T00:20:30;5.90;99.90
22925;DHT22;11628;51.072;3.712;2023-04-03T00:22:55;5.90;99.90
22925;DHT22;11628;51.072;3.712;2023-04-03T00:25:21;5.80;99.90
22925;DHT22;11628;51.072;3.712;2023-04-03T00:27:47;5.70;99.90
22925;DHT22;11628;51.072;3.712;2023-04-03T00:30:15;5.70;99.90
22925;DHT22;11628;51.072;3.712;2023-04-03T00:32:41;5.70;99.90
22925;DHT22;11628;51.072;3.712;2023-04-03T00:35:07;5.70;99.90
22925;DHT22;11628;51.072;3.712;2023-04-03T00:37:33;5.70;99.90
22925;DHT22;11628;51.072;3.712;2023-04-03T00:39:59;5.70;99.90
22925;DHT22;11628;51.072;3.712;2023-04-03T00:42:25;5.70;99.90
22925;DHT22;11628;51.072;3.712;2023-04-03T00:47:23;5.60;99.90
22925;DHT22;11628;51.072;3.712;2023-04-03T00:49:50;5.60;99.90
22925;DHT22;11628;51.072;3.712;2023-04-03T00:52:21;5.60;99.90
22925;DHT22;11628;51.072;3.712;2023-04-03T00:54:49;5.50;99.90
22925;DHT22;11628;51.072;3.712;2023-04-03T00:57:16;5.60;99.90
22925;DHT22;11628;51.072;3.712;2023-04-03T00:59:46;5.70;99.90
22925;DHT22;11628;51.072;3.712;2023-04-03T01:02:14;5.60;99.90
22925;DHT22;11628;51.072;3.712;2023-04-03T01:04:42;5.60;99.90
22925;DHT22;11628;51.072;3.712;2023-04-03T01:07:14;5.60;99.90
22925;DHT22;11628;51.072;3.712;2023-04-03T01:09:41;5.70;99.90
22925;DHT22;11628;51.072;3.712;2023-04-03T01:12:22;5.70;99.90
22925;DHT22;11628;51.072;3.712;2023-04-03T01:14:50;5.70;99.90
22925;DHT22;11628;51.072;3.712;2023-04-03T01:17:36;5.60;99.90
22925;DHT22;11628;51.072;3.712;2023-04-03T01:20:11;5.60;99.90
22925;DHT22;11628;51.072;3.712;2023-04-03T01:25:44;5.60;99.90
22925;DHT22;11628;51.072;3.712;2023-04-03T01:28:14;5.50;99.90
22925;DHT22;11628;51.072;3.712;2023-04-03T01:33:23;5.60;99.90
22925;DHT22;11628;51.072;3.712;2023-04-03T01:35:49;5.50;99.90
22925;DHT22;11628;51.072;3.712;2023-04-03T01:38:15;5.60;99.90
22925;DHT22;11628;51.072;3.712;2023-04-03T01:40:41;5.60;99.90
22925;DHT22;11628;51.072;3.712;2023-04-03T01:43:07;5.70;99.90
22925;DHT22;11628;51.072;3.712;2023-04-03T01:45:33;5.70;99.90
22925;DHT22;11628;51.072;3.712;2023-04-03T01:47:59;5.60;99.90
22925;DHT22;11628;51.072;3.712;2023-04-03T01:50:24;5.60;99.90
22925;DHT22;11628;51.072;3.712;2023-04-03T01:52:50;5.70;99.90
22925;DHT22;11628;51.072;3.712;2023-04-03T01:55:16;5.60;99.90
22925;DHT22;11628;51.072;3.712;2023-04-03T01:57:42;5.60;99.90
22925;DHT22;11628;51.072;3.712;2023-04-03T02:00:08;5.60;99.90
22925;DHT22;11628;51.072;3.712;2023-04-03T02:02:34;5.60;99.90
22925;DHT22;11628;51.072;3.712;2023-04-03T02:05:00;5.60;99.90
22925;DHT22;11628;51.072;3.712;2023-04-03T02:07:26;5.60;99.90
22925;DHT22;11628;51.072;3.712;2023-04-03T02:09:52;5.50;99.90
22925;DHT22;11628;51.072;3.712;2023-04-03T02:12:18;5.50;99.90
22925;DHT22;11628;51.072;3.712;2023-04-03T02:14:44;5.40;99.90
22925;DHT22;11628;51.072;3.712;2023-04-03T02:17:10;5.40;99.90
22925;DHT22;11628;51.072;3.712;2023-04-03T02:19:36;5.30;99.90
22925;DHT22;11628;51.072;3.712;2023-04-03T02:22:03;5.30;99.90
22925;DHT22;11628;51.072;3.712;2023-04-03T02:24:29;5.30;99.90
22925;DHT22;11628;51.072;3.712;2023-04-03T02:26:55;5.20;99.90
22925;DHT22;11628;51.072;3.712;2023-04-03T02:29:21;5.30;99.90
22925;DHT22;11628;51.072;3.712;2023-04-03T02:31:46;5.30;99.90
22925;DHT22;11628;51.072;3.712;2023-04-03T02:34:12;5.30;99.90
22925;DHT22;11628;51.072;3.712;2023-04-03T02:36:38;5.30;99.90
22925;DHT22;11628;51.072;3.712;2023-04-03T02:39:04;5.40;99.90
22925;DHT22;11628;51.072;3.712;2023-04-03T02:41:30;5.30;99.90
22925;DHT22;11628;51.072;3.712;2023-04-03T02:44:01;5.40;99.90
22925;DHT22;11628;51.072;3.712;2023-04-03T02:46:27;5.40;99.90
22925;DHT22;11628;51.072;3.712;2023-04-03T02:48:53;5.40;99.90
22925;DHT22;11628;51.072;3.712;2023-04-03T02:51:19;5.50;99.90
22925;DHT22;11628;51.072;3.712;2023-04-03T02:53:44;5.50;99.90
22925;DHT22;11628;51.072;3.712;2023-04-03T02:56:10;5.50;99.90
22925;DHT22;11628;51.072;3.712;2023-04-03T02:58:36;5.50;99.90
22925;DHT22;11628;51.072;3.712;2023-04-03T03:01:02;5.50;99.90
22925;DHT22;11628;51.072;3.712;2023-04-03T03:03:28;5.50;99.90
22925;DHT22;11628;51.072;3.712;2023-04-03T03:08:28;5.60;99.90
22925;DHT22;11628;51.072;3.712;2023-04-03T03:10:54;5.50;99.90
22925;DHT22;11628;51.072;3.712;2023-04-03T03:13:20;5.50;99.90
22925;DHT22;11628;51.072;3.712;2023-04-03T03:15:45;5.50;99.90
22925;DHT22;11628;51.072;3.712;2023-04-03T03:18:11;5.50;99.90
22925;DHT22;11628;51.072;3.712;2023-04-03T03:20:37;5.40;99.90
22925;DHT22;11628;51.072;3.712;2023-04-03T03:23:03;5.40;99.90
22925;DHT22;11628;51.072;3.712;2023-04-03T03:25:28;5.40;99.90
22925;DHT22;11628;51.072;3.712;2023-04-03T03:27:54;5.30;99.90
22925;DHT22;11628;51.072;3.712;2023-04-03T03:30:20;5.40;99.90
22925;DHT22;11628;51.072;3.712;2023-04-03T03:32:46;5.50;99.90
22925;DHT22;11628;51.072;3.712;2023-04-03T03:35:12;5.50;99.90
22925;DHT22;11628;51.072;3.712;2023-04-03T03:37:37;5.40;99.90
22925;DHT22;11628;51.072;3.712;2023-04-03T03:40:03;5.50;99.90
22925;DHT22;11628;51.072;3.712;2023-04-03T03:42:29;5.40;99.90
22925;DHT22;11628;51.072;3.712;2023-04-03T03:44:55;5.30;99.90
22925;DHT22;11628;51.072;3.712;2023-04-03T03:47:21;5.30;99.90
22925;DHT22;11628;51.072;3.712;2023-04-03T03:49:46;5.30;99.90
22925;DHT22;11628;51.072;3.712;2023-04-03T03:52:13;5.30;99.90
22925;DHT22;11628;51.072;3.712;2023-04-03T03:54:38;5.50;99.90
22925;DHT22;11628;51.072;3.712;2023-04-03T03:57:04;5.40;99.90
22925;DHT22;11628;51.072;3.712;2023-04-03T03:59:30;5.20;99.90
22925;DHT22;11628;51.072;3.712;2023-04-03T04:01:56;5.20;99.90
22925;DHT22;11628;51.072;3.712;2023-04-03T04:04:21;5.20;99.90
22925;DHT22;11628;51.072;3.712;2023-04-03T04:06:47;5.20;99.90
22925;DHT22;11628;51.072;3.712;2023-04-03T04:09:13;5.20;99.90
22925;DHT22;11628;51.072;3.712;2023-04-03T04:11:39;5.30;99.90
22925;DHT22;11628;51.072;3.712;2023-04-03T04:14:06;5.20;99.90
22925;DHT22;11628;51.072;3.712;2023-04-03T04:16:32;5.20;99.90
22925;DHT22;11628;51.072;3.712;2023-04-03T04:18:57;5.20;99.90
22925;DHT22;11628;51.072;3.712;2023-04-03T04:21:23;5.20;99.90
22925;DHT22;11628;51.072;3.712;2023-04-03T04:23:49;5.00;99.90
22925;DHT22;11628;51.072;3.712;2023-04-03T04:26:15;5.00;99.90
22925;DHT22;11628;51.072;3.712;2023-04-03T04:28:41;4.90;99.90
22925;DHT22;11628;51.072;3.712;2023-04-03T04:31:06;4.90;99.90
22925;DHT22;11628;51.072;3.712;2023-04-03T04:33:32;4.90;99.90
22925;DHT22;11628;51.072;3.712;2023-04-03T04:35:58;4.80;99.90
22925;DHT22;11628;51.072;3.712;2023-04-03T04:38:23;4.80;99.90
22925;DHT22;11628;51.072;3.712;2023-04-03T04:40:49;4.80;99.90
22925;DHT22;11628;51.072;3.712;2023-04-03T04:43:17;4.80;99.90
22925;DHT22;11628;51.072;3.712;2023-04-03T04:45:43;4.90;99.90
22925;DHT22;11628;51.072;3.712;2023-04-03T04:48:09;4.90;99.90
22925;DHT22;11628;51.072;3.712;2023-04-03T04:50:35;5.00;99.90
22925;DHT22;11628;51.072;3.712;2023-04-03T04:53:00;5.00;99.90
22925;DHT22;11628;51.072;3.712;2023-04-03T04:55:26;4.90;99.90
22925;DHT22;11628;51.072;3.712;2023-04-03T04:57:52;4.90;99.90
22925;DHT22;11628;51.072;3.712;2023-04-03T05:00:18;4.90;99.90
22925;DHT22;11628;51.072;3.712;2023-04-03T05:02:44;4.90;99.90
22925;DHT22;11628;51.072;3.712;2023-04-03T05:05:09;4.80;99.90
22925;DHT22;11628;51.072;3.712;2023-04-03T05:07:35;4.80;99.90
22925;DHT22;11628;51.072;3.712;2023-04-03T05:10:02;4.70;99.90
22925;DHT22;11628;51.072;3.712;2023-04-03T05:12:28;4.70;99.90
22925;DHT22;11628;51.072;3.712;2023-04-03T05:14:54;4.70;99.90
22925;DHT22;11628;51.072;3.712;2023-04-03T05:17:19;4.60;99.90
22925;DHT22;11628;51.072;3.712;2023-04-03T05:19:45;4.50;99.90
22925;DHT22;11628;51.072;3.712;2023-04-03T05:22:11;4.40;99.90
22925;DHT22;11628;51.072;3.712;2023-04-03T05:24:37;4.40;99.90
22925;DHT22;11628;51.072;3.712;2023-04-03T05:27:03;4.30;99.90
22925;DHT22;11628;51.072;3.712;2023-04-03T05:29:29;4.40;99.90
22925;DHT22;11628;51.072;3.712;2023-04-03T05:31:55;4.40;99.90
22925;DHT22;11628;51.072;3.712;2023-04-03T05:34:21;4.50;99.90
22925;DHT22;11628;51.072;3.712;2023-04-03T05:36:47;4.50;99.90
22925;DHT22;11628;51.072;3.712;2023-04-03T05:39:12;4.60;99.90
22925;DHT22;11628;51.072;3.712;2023-04-03T05:41:38;4.60;99.90
22925;DHT22;11628;51.072;3.712;2023-04-03T05:44:04;4.50;99.90
22925;DHT22;11628;51.072;3.712;2023-04-03T05:46:30;4.50;99.90
22925;DHT22;11628;51.072;3.712;2023-04-03T05:48:56;4.60;99.90
22925;DHT22;11628;51.072;3.712;2023-04-03T05:51:24;4.50;99.90
22925;DHT22;11628;51.072;3.712;2023-04-03T05:53:59;4.60;99.90
22925;DHT22;11628;51.072;3.712;2023-04-03T05:56:26;4.60;99.90
22925;DHT22;11628;51.072;3.712;2023-04-03T05:58:52;4.50;99.90
22925;DHT22;11628;51.072;3.712;2023-04-03T06:01:17;4.60;99.90
22925;DHT22;11628;51.072;3.712;2023-04-03T06:03:43;4.70;99.90
22925;DHT22;11628;51.072;3.712;2023-04-03T06:06:13;4.80;99.90
22925;DHT22;11628;51.072;3.712;2023-04-03T06:08:39;4.90;99.90
22925;DHT22;11628;51.072;3.712;2023-04-03T06:11:05;4.90;99.90
22925;DHT22;11628;51.072;3.712;2023-04-03T06:13:31;5.10;99.90
22925;DHT22;11628;51.072;3.712;2023-04-03T06:15:57;5.20;99.90
22925;DHT22;11628;51.072;3.712;2023-04-03T06:18:23;5.40;99.90
22925;DHT22;11628;51.072;3.712;2023-04-03T06:20:50;5.40;99.90
22925;DHT22;11628;51.072;3.712;2023-04-03T06:23:15;5.40;99.90
22925;DHT22;11628;51.072;3.712;2023-04-03T06:25:41;5.50;99.90
22925;DHT22;11628;51.072;3.712;2023-04-03T06:28:08;5.50;99.90
22925;DHT22;11628;51.072;3.712;2023-04-03T06:30:35;5.50;99.90
22925;DHT22;11628;51.072;3.712;2023-04-03T06:33:02;5.60;99.90
22925;DHT22;11628;51.072;3.712;2023-04-03T06:35:27;5.80;99.90
22925;DHT22;11628;51.072;3.712;2023-04-03T06:37:55;5.90;99.90
22925;DHT22;11628;51.072;3.712;2023-04-03T06:40:23;6.00;99.90
22925;DHT22;11628;51.072;3.712;2023-04-03T06:42:50;6.00;99.90
22925;DHT22;11628;51.072;3.712;2023-04-03T06:45:16;6.00;99.90
22925;DHT22;11628;51.072;3.712;2023-04-03T06:47:42;6.10;99.90
22925;DHT22;11628;51.072;3.712;2023-04-03T06:50:10;6.40;99.90
22925;DHT22;11628;51.072;3.712;2023-04-03T06:52:37;6.70;99.90
22925;DHT22;11628;51.072;3.712;2023-04-03T06:55:03;6.80;99.90
22925;DHT22;11628;51.072;3.712;2023-04-03T06:57:29;6.90;99.90
22925;DHT22;11628;51.072;3.712;2023-04-03T06:59:55;7.00;99.90
22925;DHT22;11628;51.072;3.712;2023-04-03T07:02:21;7.00;99.90
22925;DHT22;11628;51.072;3.712;2023-04-03T07:04:47;6.90;99.90
22925;DHT22;11628;51.072;3.712;2023-04-03T07:07:12;7.00;99.90
22925;DHT22;11628;51.072;3.712;2023-04-03T07:09:38;7.10;99.90
22925;DHT22;11628;51.072;3.712;2023-04-03T07:12:04;7.30;99.90
22925;DHT22;11628;51.072;3.712;2023-04-03T07:14:30;7.40;99.90
22925;DHT22;11628;51.072;3.712;2023-04-03T07:16:55;7.50;99.90
22925;DHT22;11628;51.072;3.712;2023-04-03T07:19:21;7.30;99.90
22925;DHT22;11628;51.072;3.712;2023-04-03T07:21:47;7.40;99.90
22925;DHT22;11628;51.072;3.712;2023-04-03T07:24:13;7.50;99.90
22925;DHT22;11628;51.072;3.712;2023-04-03T07:26:39;7.50;99.90
22925;DHT22;11628;51.072;3.712;2023-04-03T07:29:05;7.40;99.90
22925;DHT22;11628;51.072;3.712;2023-04-03T07:31:30;7.40;99.90
22925;DHT22;11628;51.072;3.712;2023-04-03T07:33:56;7.50;99.90
22925;DHT22;11628;51.072;3.712;2023-04-03T07:36:22;7.60;99.90
22925;DHT22;11628;51.072;3.712;2023-04-03T07:38:48;7.70;99.90
22925;DHT22;11628;51.072;3.712;2023-04-03T07:41:16;8.00;99.90
22925;DHT22;11628;51.072;3.712;2023-04-03T07:43:43;8.20;99.90
22925;DHT22;11628;51.072;3.712;2023-04-03T07:46:09;8.20;99.90
22925;DHT22;11628;51.072;3.712;2023-04-03T07:48:35;8.30;99.90
22925;DHT22;11628;51.072;3.712;2023-04-03T07:51:02;8.40;99.90
22925;DHT22;11628;51.072;3.712;2023-04-03T07:53:29;8.60;99.90
22925;DHT22;11628;51.072;3.712;2023-04-03T07:55:57;8.50;99.90
22925;DHT22;11628;51.072;3.712;2023-04-03T07:58:23;8.70;99.90
22925;DHT22;11628;51.072;3.712;2023-04-03T08:00:49;8.80;99.90
22925;DHT22;11628;51.072;3.712;2023-04-03T08:03:15;8.90;99.90
22925;DHT22;11628;51.072;3.712;2023-04-03T08:05:45;8.90;99.90
22925;DHT22;11628;51.072;3.712;2023-04-03T08:08:14;9.00;99.90
22925;DHT22;11628;51.072;3.712;2023-04-03T08:10:40;8.90;99.90
22925;DHT22;11628;51.072;3.712;2023-04-03T08:13:06;9.60;99.90
22925;DHT22;11628;51.072;3.712;2023-04-03T08:15:32;10.70;99.90
22925;DHT22;11628;51.072;3.712;2023-04-03T08:17:59;12.40;99.90
22925;DHT22;11628;51.072;3.712;2023-04-03T08:20:26;14.00;99.90
22925;DHT22;11628;51.072;3.712;2023-04-03T08:22:52;15.70;99.90
22925;DHT22;11628;51.072;3.712;2023-04-03T08:25:18;17.50;99.90
22925;DHT22;11628;51.072;3.712;2023-04-03T08:27:44;19.10;99.90
22925;DHT22;11628;51.072;3.712;2023-04-03T08:30:10;20.20;99.90
22925;DHT22;11628;51.072;3.712;2023-04-03T08:32:36;21.50;99.90
22925;DHT22;11628;51.072;3.712;2023-04-03T08:35:03;22.60;99.90
22925;DHT22;11628;51.072;3.712;2023-04-03T08:37:29;23.20;97.60
22925;DHT22;11628;51.072;3.712;2023-04-03T08:39:55;23.70;96.30
22925;DHT22;11628;51.072;3.712;2023-04-03T08:45:18;26.00;90.80
22925;DHT22;11628;51.072;3.712;2023-04-03T08:48:13;26.80;87.00
22925;DHT22;11628;51.072;3.712;2023-04-03T08:50:43;27.40;83.90
22925;DHT22;11628;51.072;3.712;2023-04-03T08:53:20;28.60;79.90
22925;DHT22;11628;51.072;3.712;2023-04-03T08:55:49;29.10;76.20
22925;DHT22;11628;51.072;3.712;2023-04-03T09:03:21;31.00;64.40
22925;DHT22;11628;51.072;3.712;2023-04-03T09:05:54;31.00;63.00
22925;DHT22;11628;51.072;3.712;2023-04-03T09:08:27;31.60;60.70
22925;DHT22;11628;51.072;3.712;2023-04-03T09:21:50;32.00;52.60
22925;DHT22;11628;51.072;3.712;2023-04-03T09:24:16;31.70;53.30
22925;DHT22;11628;51.072;3.712;2023-04-03T09:26:57;32.40;52.60
22925;DHT22;11628;51.072;3.712;2023-04-03T09:29:26;32.80;51.60
22925;DHT22;11628;51.072;3.712;2023-04-03T09:32:02;33.50;48.00
22925;DHT22;11628;51.072;3.712;2023-04-03T09:34:40;33.90;48.60
22925;DHT22;11628;51.072;3.712;2023-04-03T09:37:07;34.90;47.20
22925;DHT22;11628;51.072;3.712;2023-04-03T09:39:54;33.90;45.00
22925;DHT22;11628;51.072;3.712;2023-04-03T09:42:23;33.00;45.40
22925;DHT22;11628;51.072;3.712;2023-04-03T09:45:00;33.60;44.50
22925;DHT22;11628;51.072;3.712;2023-04-03T09:47:36;34.30;44.10
22925;DHT22;11628;51.072;3.712;2023-04-03T09:52:49;35.60;42.20
22925;DHT22;11628;51.072;3.712;2023-04-03T09:57:42;35.40;42.80
22925;DHT22;11628;51.072;3.712;2023-04-03T10:00:35;35.70;43.00
22925;DHT22;11628;51.072;3.712;2023-04-03T10:03:02;35.90;43.20
22925;DHT22;11628;51.072;3.712;2023-04-03T10:05:41;36.10;42.10
22925;DHT22;11628;51.072;3.712;2023-04-03T10:10:39;35.80;41.80
22925;DHT22;11628;51.072;3.712;2023-04-03T10:13:06;36.00;42.00
22925;DHT22;11628;51.072;3.712;2023-04-03T10:15:45;36.10;40.40
22925;DHT22;11628;51.072;3.712;2023-04-03T10:18:42;36.50;40.70
22925;DHT22;11628;51.072;3.712;2023-04-03T10:27:18;36.50;40.50
22925;DHT22;11628;51.072;3.712;2023-04-03T10:35:43;37.30;39.80
22925;DHT22;11628;51.072;3.712;2023-04-03T10:46:27;37.50;39.10
22925;DHT22;11628;51.072;3.712;2023-04-03T10:57:30;36.10;39.10
22925;DHT22;11628;51.072;3.712;2023-04-03T11:00:06;36.80;37.80
22925;DHT22;11628;51.072;3.712;2023-04-03T11:02:40;37.40;37.90
22925;DHT22;11628;51.072;3.712;2023-04-03T11:05:17;37.70;37.90
22925;DHT22;11628;51.072;3.712;2023-04-03T11:07:47;38.00;37.70
22925;DHT22;11628;51.072;3.712;2023-04-03T11:10:47;37.80;36.50
22925;DHT22;11628;51.072;3.712;2023-04-03T11:13:15;35.10;37.00
22925;DHT22;11628;51.072;3.712;2023-04-03T11:15:43;33.90;38.50
22925;DHT22;11628;51.072;3.712;2023-04-03T11:18:37;33.00;40.00
22925;DHT22;11628;51.072;3.712;2023-04-03T11:23:40;34.40;37.80
22925;DHT22;11628;51.072;3.712;2023-04-03T11:26:12;35.20;38.30
22925;DHT22;11628;51.072;3.712;2023-04-03T11:28:39;36.00;36.60
22925;DHT22;11628;51.072;3.712;2023-04-03T11:31:29;34.90;36.70
22925;DHT22;11628;51.072;3.712;2023-04-03T11:36:49;35.10;36.20
22925;DHT22;11628;51.072;3.712;2023-04-03T11:41:45;34.40;34.70
22925;DHT22;11628;51.072;3.712;2023-04-03T11:44:32;34.90;37.00
22925;DHT22;11628;51.072;3.712;2023-04-03T11:47:00;35.70;35.40
22925;DHT22;11628;51.072;3.712;2023-04-03T11:50:03;36.30;35.30
22925;DHT22;11628;51.072;3.712;2023-04-03T12:19:02;38.30;34.50
22925;DHT22;11628;51.072;3.712;2023-04-03T12:24:26;38.30;34.70
22925;DHT22;11628;51.072;3.712;2023-04-03T12:27:44;38.10;33.60
22925;DHT22;11628;51.072;3.712;2023-04-03T12:46:14;35.10;36.30
22925;DHT22;11628;51.072;3.712;2023-04-03T12:51:15;35.90;34.60
22925;DHT22;11628;51.072;3.712;2023-04-03T12:53:44;36.50;35.30
22925;DHT22;11628;51.072;3.712;2023-04-03T12:56:24;36.90;34.00
22925;DHT22;11628;51.072;3.712;2023-04-03T12:58:51;37.60;34.10
22925;DHT22;11628;51.072;3.712;2023-04-03T13:01:21;37.70;33.40
22925;DHT22;11628;51.072;3.712;2023-04-03T13:03:52;37.30;33.80
22925;DHT22;11628;51.072;3.712;2023-04-03T13:09:00;35.80;33.40
22925;DHT22;11628;51.072;3.712;2023-04-03T13:11:31;35.10;34.70
22925;DHT22;11628;51.072;3.712;2023-04-03T13:14:13;34.10;35.50
22925;DHT22;11628;51.072;3.712;2023-04-03T13:16:40;31.70;36.50
22925;DHT22;11628;51.072;3.712;2023-04-03T13:19:14;31.50;37.50
22925;DHT22;11628;51.072;3.712;2023-04-03T13:21:41;32.50;36.00
22925;DHT22;11628;51.072;3.712;2023-04-03T13:24:08;33.60;36.00
22925;DHT22;11628;51.072;3.712;2023-04-03T13:26:34;34.90;34.40
22925;DHT22;11628;51.072;3.712;2023-04-03T13:29:05;35.30;34.50
22925;DHT22;11628;51.072;3.712;2023-04-03T13:31:35;35.00;32.80
22925;DHT22;11628;51.072;3.712;2023-04-03T13:36:34;33.70;33.70
22925;DHT22;11628;51.072;3.712;2023-04-03T13:41:40;33.10;33.40
22925;DHT22;11628;51.072;3.712;2023-04-03T13:44:25;32.40;32.90
22925;DHT22;11628;51.072;3.712;2023-04-03T13:46:59;31.70;33.80
22925;DHT22;11628;51.072;3.712;2023-04-03T13:49:36;31.10;35.20
22925;DHT22;11628;51.072;3.712;2023-04-03T13:54:54;31.50;34.70
22925;DHT22;11628;51.072;3.712;2023-04-03T13:57:20;31.50;35.60
22925;DHT22;11628;51.072;3.712;2023-04-03T13:59:46;31.10;33.70
22925;DHT22;11628;51.072;3.712;2023-04-03T14:02:20;30.80;35.20
22925;DHT22;11628;51.072;3.712;2023-04-03T14:04:54;29.80;35.30
22925;DHT22;11628;51.072;3.712;2023-04-03T14:07:24;30.20;36.80
22925;DHT22;11628;51.072;3.712;2023-04-03T14:09:50;30.50;36.00
22925;DHT22;11628;51.072;3.712;2023-04-03T14:14:53;31.20;34.60
22925;DHT22;11628;51.072;3.712;2023-04-03T14:17:23;30.30;35.40
22925;DHT22;11628;51.072;3.712;2023-04-03T14:19:50;29.40;34.40
22925;DHT22;11628;51.072;3.712;2023-04-03T14:22:23;29.60;35.30
22925;DHT22;11628;51.072;3.712;2023-04-03T14:24:50;29.80;35.40
22925;DHT22;11628;51.072;3.712;2023-04-03T14:27:32;29.40;35.30
22925;DHT22;11628;51.072;3.712;2023-04-03T14:29:59;29.00;36.00
22925;DHT22;11628;51.072;3.712;2023-04-03T14:32:26;29.40;36.00
22925;DHT22;11628;51.072;3.712;2023-04-03T14:34:52;29.20;35.20
22925;DHT22;11628;51.072;3.712;2023-04-03T14:37:21;29.50;35.30
22925;DHT22;11628;51.072;3.712;2023-04-03T14:39:48;29.70;35.30
22925;DHT22;11628;51.072;3.712;2023-04-03T14:42:21;29.60;36.50
22925;DHT22;11628;51.072;3.712;2023-04-03T14:44:47;29.80;35.40
22925;DHT22;11628;51.072;3.712;2023-04-03T14:47:26;29.90;36.10
22925;DHT22;11628;51.072;3.712;2023-04-03T14:49:53;29.90;36.40
22925;DHT22;11628;51.072;3.712;2023-04-03T14:52:22;29.80;35.20
22925;DHT22;11628;51.072;3.712;2023-04-03T14:54:50;29.80;35.10
22925;DHT22;11628;51.072;3.712;2023-04-03T14:57:16;29.30;35.50
22925;DHT22;11628;51.072;3.712;2023-04-03T14:59:43;28.70;34.60
22925;DHT22;11628;51.072;3.712;2023-04-03T15:02:31;28.30;34.30
22925;DHT22;11628;51.072;3.712;2023-04-03T15:04:58;27.60;35.50
22925;DHT22;11628;51.072;3.712;2023-04-03T15:07:26;27.20;35.80
22925;DHT22;11628;51.072;3.712;2023-04-03T15:09:52;27.20;35.80
22925;DHT22;11628;51.072;3.712;2023-04-03T15:12:22;27.40;35.90
22925;DHT22;11628;51.072;3.712;2023-04-03T15:14:47;27.50;35.60
22925;DHT22;11628;51.072;3.712;2023-04-03T15:17:17;27.60;36.40
22925;DHT22;11628;51.072;3.712;2023-04-03T15:19:43;27.50;36.00
22925;DHT22;11628;51.072;3.712;2023-04-03T15:22:17;27.50;37.10
22925;DHT22;11628;51.072;3.712;2023-04-03T15:24:44;27.30;36.00
22925;DHT22;11628;51.072;3.712;2023-04-03T15:27:11;27.30;36.40
22925;DHT22;11628;51.072;3.712;2023-04-03T15:29:38;27.00;36.00
22925;DHT22;11628;51.072;3.712;2023-04-03T15:32:04;26.40;36.20
22925;DHT22;11628;51.072;3.712;2023-04-03T15:34:30;25.80;37.20
22925;DHT22;11628;51.072;3.712;2023-04-03T15:36:56;25.60;37.50
22925;DHT22;11628;51.072;3.712;2023-04-03T15:39:24;25.50;38.20
22925;DHT22;11628;51.072;3.712;2023-04-03T15:41:50;25.20;37.90
22925;DHT22;11628;51.072;3.712;2023-04-03T15:44:17;24.90;38.60
22925;DHT22;11628;51.072;3.712;2023-04-03T15:46:44;24.70;38.10
22925;DHT22;11628;51.072;3.712;2023-04-03T15:49:11;24.50;38.10
22925;DHT22;11628;51.072;3.712;2023-04-03T15:51:37;24.30;39.50
22925;DHT22;11628;51.072;3.712;2023-04-03T15:54:03;24.30;39.40
22925;DHT22;11628;51.072;3.712;2023-04-03T15:56:29;24.10;38.90
22925;DHT22;11628;51.072;3.712;2023-04-03T15:58:54;23.80;38.20
22925;DHT22;11628;51.072;3.712;2023-04-03T16:01:20;23.40;39.50
22925;DHT22;11628;51.072;3.712;2023-04-03T16:03:47;23.10;39.70
22925;DHT22;11628;51.072;3.712;2023-04-03T16:06:17;22.80;40.30
22925;DHT22;11628;51.072;3.712;2023-04-03T16:08:44;22.60;40.10
22925;DHT22;11628;51.072;3.712;2023-04-03T16:11:11;22.30;40.10
22925;DHT22;11628;51.072;3.712;2023-04-03T16:13:37;22.10;40.60
22925;DHT22;11628;51.072;3.712;2023-04-03T16:16:04;21.80;41.10
22925;DHT22;11628;51.072;3.712;2023-04-03T16:18:31;21.60;42.50
22925;DHT22;11628;51.072;3.712;2023-04-03T16:20:57;21.40;41.60
22925;DHT22;11628;51.072;3.712;2023-04-03T16:23:24;21.40;42.80
22925;DHT22;11628;51.072;3.712;2023-04-03T16:25:50;21.30;41.70
22925;DHT22;11628;51.072;3.712;2023-04-03T16:28:17;21.20;42.30
22925;DHT22;11628;51.072;3.712;2023-04-03T16:30:44;21.00;42.20
22925;DHT22;11628;51.072;3.712;2023-04-03T16:33:12;21.00;42.40
22925;DHT22;11628;51.072;3.712;2023-04-03T16:35:38;20.80;42.10
22925;DHT22;11628;51.072;3.712;2023-04-03T16:38:04;20.60;41.80
22925;DHT22;11628;51.072;3.712;2023-04-03T16:40:29;20.40;42.40
22925;DHT22;11628;51.072;3.712;2023-04-03T16:42:55;20.20;42.90
22925;DHT22;11628;51.072;3.712;2023-04-03T16:45:21;19.80;42.50
22925;DHT22;11628;51.072;3.712;2023-04-03T16:47:47;19.50;43.30
22925;DHT22;11628;51.072;3.712;2023-04-03T16:50:12;19.10;44.10
22925;DHT22;11628;51.072;3.712;2023-04-03T16:52:38;19.00;44.70
22925;DHT22;11628;51.072;3.712;2023-04-03T16:55:05;18.90;44.20
22925;DHT22;11628;51.072;3.712;2023-04-03T16:57:31;18.70;44.30
22925;DHT22;11628;51.072;3.712;2023-04-03T16:59:57;18.60;45.50
22925;DHT22;11628;51.072;3.712;2023-04-03T17:02:23;18.40;45.40
22925;DHT22;11628;51.072;3.712;2023-04-03T17:04:53;18.40;44.80
22925;DHT22;11628;51.072;3.712;2023-04-03T17:07:20;18.40;44.80
22925;DHT22;11628;51.072;3.712;2023-04-03T17:09:46;18.20;44.80
22925;DHT22;11628;51.072;3.712;2023-04-03T17:12:12;18.10;45.60
22925;DHT22;11628;51.072;3.712;2023-04-03T17:14:38;18.00;45.80
22925;DHT22;11628;51.072;3.712;2023-04-03T17:17:04;17.90;46.10
22925;DHT22;11628;51.072;3.712;2023-04-03T17:19:30;17.80;45.70
22925;DHT22;11628;51.072;3.712;2023-04-03T17:21:56;17.70;46.00
22925;DHT22;11628;51.072;3.712;2023-04-03T17:24:22;17.50;46.00
22925;DHT22;11628;51.072;3.712;2023-04-03T17:26:48;17.30;47.10
22925;DHT22;11628;51.072;3.712;2023-04-03T17:29:14;17.00;47.50
22925;DHT22;11628;51.072;3.712;2023-04-03T17:31:40;16.80;47.90
22925;DHT22;11628;51.072;3.712;2023-04-03T17:34:06;16.50;48.40
22925;DHT22;11628;51.072;3.712;2023-04-03T17:36:33;16.30;50.10
22925;DHT22;11628;51.072;3.712;2023-04-03T17:38:59;15.90;49.30
22925;DHT22;11628;51.072;3.712;2023-04-03T17:41:25;15.60;49.80
22925;DHT22;11628;51.072;3.712;2023-04-03T17:43:52;15.40;50.90
22925;DHT22;11628;51.072;3.712;2023-04-03T17:46:21;15.10;52.20
22925;DHT22;11628;51.072;3.712;2023-04-03T17:48:47;14.80;52.00
22925;DHT22;11628;51.072;3.712;2023-04-03T17:51:18;14.60;52.30
22925;DHT22;11628;51.072;3.712;2023-04-03T17:53:45;14.40;53.20
22925;DHT22;11628;51.072;3.712;2023-04-03T17:56:14;14.20;53.80
22925;DHT22;11628;51.072;3.712;2023-04-03T17:58:40;14.10;54.30